sensor_id;sensor_type;location;lat;lon;timestamp;temperature;humidity
52073;DHT22;38074;51.232;6.826;2023-05-10T00:00:36;24.80;52.50
52073;DHT22;38074;51.232;6.826;2023-05-10T00:07:51;24.80;52.40
52073;DHT22;38074;51.232;6.826;2023-05-10T00:15:08;24.80;52.40
52073;DHT22;38074;51.232;6.826;2023-05-10T00:22:23;24.90;52.40
52073;DHT22;38074;51.232;6.826;2023-05-10T00:29:39;24.90;52.30
52073;DHT22;38074;51.232;6.826;2023-05-10T00:36:54;24.80;52.30
52073;DHT22;38074;51.232;6.826;2023-05-10T00:44:10;24.80;52.30
52073;DHT22;38074;51.232;6.826;2023-05-10T00:51:25;24.80;52.10
52073;DHT22;38074;51.232;6.826;2023-05-10T00:58:41;24.80;52.10
52073;DHT22;38074;51.232;6.826;2023-05-10T01:05:57;24.80;52.10
52073;DHT22;38074;51.232;6.826;2023-05-10T01:13:13;24.80;52.10
52073;DHT22;38074;51.232;6.826;2023-05-10T01:20:38;24.80;52.00
52073;DHT22;38074;51.232;6.826;2023-05-10T01:35:34;24.90;52.00
52073;DHT22;38074;51.232;6.826;2023-05-10T01:43:00;24.80;51.80
52073;DHT22;38074;51.232;6.826;2023-05-10T01:50:25;24.80;51.80
52073;DHT22;38074;51.232;6.826;2023-05-10T01:57:44;24.80;51.70
52073;DHT22;38074;51.232;6.826;2023-05-10T02:05:00;24.80;51.70
52073;DHT22;38074;51.232;6.826;2023-05-10T02:12:17;24.80;51.70
52073;DHT22;38074;51.232;6.826;2023-05-10T03:42:17;24.80;51.10
52073;DHT22;38074;51.232;6.826;2023-05-10T03:49:33;24.80;51.20
52073;DHT22;38074;51.232;6.826;2023-05-10T03:56:48;24.80;51.20
52073;DHT22;38074;51.232;6.826;2023-05-10T04:04:04;24.80;51.20
52073;DHT22;38074;51.232;6.826;2023-05-10T04:11:19;24.80;51.20
52073;DHT22;38074;51.232;6.826;2023-05-10T04:18:37;24.80;51.10
52073;DHT22;38074;51.232;6.826;2023-05-10T04:25:52;24.80;51.10
52073;DHT22;38074;51.232;6.826;2023-05-10T04:33:08;24.80;51.70
52073;DHT22;38074;51.232;6.826;2023-05-10T04:40:23;24.80;51.00
52073;DHT22;38074;51.232;6.826;2023-05-10T04:47:39;24.80;51.00
52073;DHT22;38074;51.232;6.826;2023-05-10T04:54:55;24.80;51.00
52073;DHT22;38074;51.232;6.826;2023-05-10T05:02:11;24.80;51.00
52073;DHT22;38074;51.232;6.826;2023-05-10T05:09:27;24.80;51.00
52073;DHT22;38074;51.232;6.826;2023-05-10T05:16:42;24.80;51.00
52073;DHT22;38074;51.232;6.826;2023-05-10T05:24:00;24.80;51.20
52073;DHT22;38074;51.232;6.826;2023-05-10T05:31:17;24.80;52.10
52073;DHT22;38074;51.232;6.826;2023-05-10T05:46:00;24.90;52.80
52073;DHT22;38074;51.232;6.826;2023-05-10T05:53:17;24.90;52.60
52073;DHT22;38074;51.232;6.826;2023-05-10T06:00:33;24.90;53.10
52073;DHT22;38074;51.232;6.826;2023-05-10T06:07:59;24.90;53.40
52073;DHT22;38074;51.232;6.826;2023-05-10T06:15:43;25.00;53.60
52073;DHT22;38074;51.232;6.826;2023-05-10T06:22:58;25.10;53.80
52073;DHT22;38074;51.232;6.826;2023-05-10T06:30:35;25.10;54.90
52073;DHT22;38074;51.232;6.826;2023-05-10T06:37:51;25.20;55.00
52073;DHT22;38074;51.232;6.826;2023-05-10T06:45:07;25.20;54.50
52073;DHT22;38074;51.232;6.826;2023-05-10T06:52:23;25.00;52.70
52073;DHT22;38074;51.232;6.826;2023-05-10T06:59:39;24.90;52.20
52073;DHT22;38074;51.232;6.826;2023-05-10T07:06:54;24.80;51.70
52073;DHT22;38074;51.232;6.826;2023-05-10T07:14:10;24.70;51.20
52073;DHT22;38074;51.232;6.826;2023-05-10T07:21:25;24.70;51.00
52073;DHT22;38074;51.232;6.826;2023-05-10T07:28:43;24.70;51.00
52073;DHT22;38074;51.232;6.826;2023-05-10T07:35:59;24.70;50.70
52073;DHT22;38074;51.232;6.826;2023-05-10T07:43:15;24.70;50.80
52073;DHT22;38074;51.232;6.826;2023-05-10T07:50:31;24.70;50.70
52073;DHT22;38074;51.232;6.826;2023-05-10T07:57:46;24.60;50.60
52073;DHT22;38074;51.232;6.826;2023-05-10T08:05:02;24.60;50.70
52073;DHT22;38074;51.232;6.826;2023-05-10T08:12:18;24.60;50.50
52073;DHT22;38074;51.232;6.826;2023-05-10T08:19:33;24.60;50.70
52073;DHT22;38074;51.232;6.826;2023-05-10T08:26:49;24.60;50.60
52073;DHT22;38074;51.232;6.826;2023-05-10T08:34:04;24.70;50.90
52073;DHT22;38074;51.232;6.826;2023-05-10T08:41:20;24.70;51.30
52073;DHT22;38074;51.232;6.826;2023-05-10T08:48:37;25.00;50.80
52073;DHT22;38074;51.232;6.826;2023-05-10T08:55:54;25.20;50.00
52073;DHT22;38074;51.232;6.826;2023-05-10T09:03:10;25.40;49.40
52073;DHT22;38074;51.232;6.826;2023-05-10T09:10:26;25.30;48.80
52073;DHT22;38074;51.232;6.826;2023-05-10T09:17:43;25.30;49.00
52073;DHT22;38074;51.232;6.826;2023-05-10T09:25:10;25.20;48.70
52073;DHT22;38074;51.232;6.826;2023-05-10T09:32:39;25.10;48.30
52073;DHT22;38074;51.232;6.826;2023-05-10T09:39:55;25.00;48.10
52073;DHT22;38074;51.232;6.826;2023-05-10T09:47:17;25.00;48.30
52073;DHT22;38074;51.232;6.826;2023-05-10T09:54:33;24.90;48.20
52073;DHT22;38074;51.232;6.826;2023-05-10T10:01:50;24.90;48.10
52073;DHT22;38074;51.232;6.826;2023-05-10T10:09:07;24.80;48.00
52073;DHT22;38074;51.232;6.826;2023-05-10T10:16:24;24.80;47.90
52073;DHT22;38074;51.232;6.826;2023-05-10T10:23:40;24.80;47.90
52073;DHT22;38074;51.232;6.826;2023-05-10T10:30:56;24.70;47.60
52073;DHT22;38074;51.232;6.826;2023-05-10T10:38:16;24.70;47.50
52073;DHT22;38074;51.232;6.826;2023-05-10T10:45:32;24.70;47.60
52073;DHT22;38074;51.232;6.826;2023-05-10T10:52:50;24.70;47.60
52073;DHT22;38074;51.232;6.826;2023-05-10T11:00:24;24.70;47.60
52073;DHT22;38074;51.232;6.826;2023-05-10T11:07:54;24.70;47.50
52073;DHT22;38074;51.232;6.826;2023-05-10T11:15:10;24.60;47.60
52073;DHT22;38074;51.232;6.826;2023-05-10T11:22:25;24.60;47.60
52073;DHT22;38074;51.232;6.826;2023-05-10T11:29:43;24.60;47.50
52073;DHT22;38074;51.232;6.826;2023-05-10T11:37:00;24.60;47.50
52073;DHT22;38074;51.232;6.826;2023-05-10T11:44:16;24.60;47.50
52073;DHT22;38074;51.232;6.826;2023-05-10T11:51:34;24.60;47.70
52073;DHT22;38074;51.232;6.826;2023-05-10T11:58:55;24.70;48.10
52073;DHT22;38074;51.232;6.826;2023-05-10T12:06:11;24.80;48.20
52073;DHT22;38074;51.232;6.826;2023-05-10T12:13:28;24.80;48.30
52073;DHT22;38074;51.232;6.826;2023-05-10T12:20:44;24.90;48.40
52073;DHT22;38074;51.232;6.826;2023-05-10T12:28:02;24.90;48.50
52073;DHT22;38074;51.232;6.826;2023-05-10T12:35:19;24.90;48.50
52073;DHT22;38074;51.232;6.826;2023-05-10T12:42:39;25.00;48.50
52073;DHT22;38074;51.232;6.826;2023-05-10T12:49:55;25.00;48.70
52073;DHT22;38074;51.232;6.826;2023-05-10T12:57:10;25.00;48.60
52073;DHT22;38074;51.232;6.826;2023-05-10T13:04:26;25.00;48.70
52073;DHT22;38074;51.232;6.826;2023-05-10T13:11:42;24.90;48.80
52073;DHT22;38074;51.232;6.826;2023-05-10T13:18:57;24.90;48.90
52073;DHT22;38074;51.232;6.826;2023-05-10T13:26:13;24.90;48.90
52073;DHT22;38074;51.232;6.826;2023-05-10T13:33:29;24.90;49.10
52073;DHT22;38074;51.232;6.826;2023-05-10T13:40:44;24.90;49.70
52073;DHT22;38074;51.232;6.826;2023-05-10T13:48:00;24.90;49.20
52073;DHT22;38074;51.232;6.826;2023-05-10T13:55:15;24.80;49.20
52073;DHT22;38074;51.232;6.826;2023-05-10T14:02:31;24.80;49.20
52073;DHT22;38074;51.232;6.826;2023-05-10T14:09:47;24.80;49.30
52073;DHT22;38074;51.232;6.826;2023-05-10T14:17:02;24.80;49.40
52073;DHT22;38074;51.232;6.826;2023-05-10T14:24:18;24.80;49.50
52073;DHT22;38074;51.232;6.826;2023-05-10T14:31:33;24.80;49.50
52073;DHT22;38074;51.232;6.826;2023-05-10T14:38:49;24.80;49.50
52073;DHT22;38074;51.232;6.826;2023-05-10T14:46:04;24.80;49.60
52073;DHT22;38074;51.232;6.826;2023-05-10T14:53:20;24.80;49.60
52073;DHT22;38074;51.232;6.826;2023-05-10T15:00:35;24.80;49.70
52073;DHT22;38074;51.232;6.826;2023-05-10T15:07:51;24.80;49.60
52073;DHT22;38074;51.232;6.826;2023-05-10T15:15:07;24.80;49.60
52073;DHT22;38074;51.232;6.826;2023-05-10T15:22:22;24.80;49.60
52073;DHT22;38074;51.232;6.826;2023-05-10T15:29:38;24.80;49.60
52073;DHT22;38074;51.232;6.826;2023-05-10T15:36:53;24.80;49.60
52073;DHT22;38074;51.232;6.826;2023-05-10T15:44:09;24.80;49.60
52073;DHT22;38074;51.232;6.826;2023-05-10T15:51:25;24.80;49.60
52073;DHT22;38074;51.232;6.826;2023-05-10T15:58:41;24.80;49.60
52073;DHT22;38074;51.232;6.826;2023-05-10T16:05:58;24.80;49.60
52073;DHT22;38074;51.232;6.826;2023-05-10T16:13:13;24.80;49.70
52073;DHT22;38074;51.232;6.826;2023-05-10T16:20:31;24.80;49.60
52073;DHT22;38074;51.232;6.826;2023-05-10T16:27:47;24.80;49.70
52073;DHT22;38074;51.232;6.826;2023-05-10T16:35:02;24.70;49.70
52073;DHT22;38074;51.232;6.826;2023-05-10T16:42:19;24.70;49.60
52073;DHT22;38074;51.232;6.826;2023-05-10T16:49:35;24.70;49.70
52073;DHT22;38074;51.232;6.826;2023-05-10T16:56:51;24.70;49.70
52073;DHT22;38074;51.232;6.826;2023-05-10T17:04:07;24.70;49.80
52073;DHT22;38074;51.232;6.826;2023-05-10T17:11:22;24.70;50.00
52073;DHT22;38074;51.232;6.826;2023-05-10T17:18:39;24.80;50.00
52073;DHT22;38074;51.232;6.826;2023-05-10T17:25:55;24.90;49.90
52073;DHT22;38074;51.232;6.826;2023-05-10T17:33:11;25.00;49.80
52073;DHT22;38074;51.232;6.826;2023-05-10T17:40:26;25.10;49.70
52073;DHT22;38074;51.232;6.826;2023-05-10T17:47:42;25.20;49.70
52073;DHT22;38074;51.232;6.826;2023-05-10T17:54:58;25.20;49.70
52073;DHT22;38074;51.232;6.826;2023-05-10T18:02:14;25.20;49.60
52073;DHT22;38074;51.232;6.826;2023-05-10T18:09:29;25.20;49.70
52073;DHT22;38074;51.232;6.826;2023-05-10T18:16:45;25.30;49.80
52073;DHT22;38074;51.232;6.826;2023-05-10T18:24:01;25.30;49.80
52073;DHT22;38074;51.232;6.826;2023-05-10T18:31:17;25.20;50.00
52073;DHT22;38074;51.232;6.826;2023-05-10T18:38:32;25.10;49.80
52073;DHT22;38074;51.232;6.826;2023-05-10T18:45:48;25.00;49.50
52073;DHT22;38074;51.232;6.826;2023-05-10T18:53:05;24.90;49.20
52073;DHT22;38074;51.232;6.826;2023-05-10T19:00:20;24.80;49.30
52073;DHT22;38074;51.232;6.826;2023-05-10T19:07:36;24.80;49.40
52073;DHT22;38074;51.232;6.826;2023-05-10T19:14:52;24.80;49.50
52073;DHT22;38074;51.232;6.826;2023-05-10T19:22:07;24.80;49.40
52073;DHT22;38074;51.232;6.826;2023-05-10T19:29:23;24.80;49.50
52073;DHT22;38074;51.232;6.826;2023-05-10T19:36:38;24.80;49.70
52073;DHT22;38074;51.232;6.826;2023-05-10T19:43:54;24.90;49.70
52073;DHT22;38074;51.232;6.826;2023-05-10T19:51:09;25.00;49.60
52073;DHT22;38074;51.232;6.826;2023-05-10T19:58:26;25.00;49.70
52073;DHT22;38074;51.232;6.826;2023-05-10T20:05:43;24.90;49.70
52073;DHT22;38074;51.232;6.826;2023-05-10T20:12:58;24.90;49.80
52073;DHT22;38074;51.232;6.826;2023-05-10T20:20:14;24.90;49.90
52073;DHT22;38074;51.232;6.826;2023-05-10T20:27:30;24.80;49.90
52073;DHT22;38074;51.232;6.826;2023-05-10T20:34:46;24.80;50.00
52073;DHT22;38074;51.232;6.826;2023-05-10T20:42:01;24.80;50.00
52073;DHT22;38074;51.232;6.826;2023-05-10T20:49:18;24.80;50.20
52073;DHT22;38074;51.232;6.826;2023-05-10T20:56:34;24.80;50.30
52073;DHT22;38074;51.232;6.826;2023-05-10T21:03:49;24.80;50.20
52073;DHT22;38074;51.232;6.826;2023-05-10T21:11:05;24.80;50.40
52073;DHT22;38074;51.232;6.826;2023-05-10T21:18:20;24.80;50.30
52073;DHT22;38074;51.232;6.826;2023-05-10T21:25:36;24.80;50.50
52073;DHT22;38074;51.232;6.826;2023-05-10T21:32:52;24.80;50.50
52073;DHT22;38074;51.232;6.826;2023-05-10T21:40:09;24.90;50.50
52073;DHT22;38074;51.232;6.826;2023-05-10T21:47:25;24.90;50.40
52073;DHT22;38074;51.232;6.826;2023-05-10T21:54:41;24.90;50.50
52073;DHT22;38074;51.232;6.826;2023-05-10T22:01:57;24.90;50.40
52073;DHT22;38074;51.232;6.826;2023-05-10T22:09:12;24.80;50.40
52073;DHT22;38074;51.232;6.826;2023-05-10T22:16:28;24.80;50.40
52073;DHT22;38074;51.232;6.826;2023-05-10T22:23:43;24.80;50.40
52073;DHT22;38074;51.232;6.826;2023-05-10T22:30:59;24.80;50.40
52073;DHT22;38074;51.232;6.826;2023-05-10T22:38:15;24.70;50.30
52073;DHT22;38074;51.232;6.826;2023-05-10T22:45:30;24.70;50.30
52073;DHT22;38074;51.232;6.826;2023-05-10T22:52:46;24.70;50.20
52073;DHT22;38074;51.232;6.826;2023-05-10T23:00:02;24.70;50.20
52073;DHT22;38074;51.232;6.826;2023-05-10T23:07:18;24.70;50.10
52073;DHT22;38074;51.232;6.826;2023-05-10T23:14:34;24.70;50.00
52073;DHT22;38074;51.232;6.826;2023-05-10T23:21:49;24.70;50.10
52073;DHT22;38074;51.232;6.826;2023-05-10T23:29:05;24.70;50.00
52073;DHT22;38074;51.232;6.826;2023-05-10T23:36:20;24.70;50.10
52073;DHT22;38074;51.232;6.826;2023-05-10T23:43:36;24.70;50.00
52073;DHT22;38074;51.232;6.826;2023-05-10T23:50:51;24.70;50.00
52073;DHT22;38074;51.232;6.826;2023-05-10T23:58:07;24.70;50.00
